createdAt,value
2022-09-07T00:02:54.931Z,18.08
2022-09-07T00:05:58.102Z,17.91
2022-09-07T00:09:04.129Z,17.89
2022-09-07T00:12:06.451Z,17.96
2022-09-07T00:15:11.489Z,17.67
2022-09-07T00:18:13.742Z,17.36
2022-09-07T00:21:17.828Z,17.59
2022-09-07T00:24:20.136Z,17.56
2022-09-07T00:27:22.468Z,17.38
2022-09-07T00:30:24.732Z,16.85
2022-09-07T00:33:27.617Z,16.64
2022-09-07T00:36:30.599Z,16.27
2022-09-07T00:39:34.028Z,16.65
2022-09-07T00:42:36.373Z,16.88
2022-09-07T00:45:38.724Z,16.88
2022-09-07T00:48:47.226Z,16.71
2022-09-07T00:51:57.734Z,16.56
2022-09-07T00:55:06.007Z,16.60
2022-09-07T00:58:09.390Z,16.67
2022-09-07T01:01:12.201Z,16.56
2022-09-07T01:04:15.520Z,16.23
2022-09-07T01:07:18.695Z,16.24
2022-09-07T01:10:24.965Z,16.34
2022-09-07T01:13:27.739Z,16.37
2022-09-07T01:16:58.959Z,16.40
2022-09-07T01:20:29.028Z,16.46
2022-09-07T01:23:52.597Z,16.60
2022-09-07T01:26:57.411Z,16.72
2022-09-07T01:30:07.152Z,16.75
2022-09-07T01:33:18.942Z,16.82
2022-09-07T01:36:33.746Z,16.85
2022-09-07T01:40:04.636Z,16.71
2022-09-07T01:43:12.727Z,16.72
2022-09-07T01:46:45.755Z,16.81
2022-09-07T01:49:48.133Z,16.79
2022-09-07T01:53:07.898Z,16.60
2022-09-07T01:56:16.876Z,16.53
2022-09-07T01:59:32.862Z,16.64
2022-09-07T02:02:43.975Z,16.65
2022-09-07T02:06:01.049Z,16.82
2022-09-07T02:09:10.750Z,17.04
2022-09-07T02:12:30.427Z,17.16
2022-09-07T02:15:50.756Z,17.18
2022-09-07T02:19:07.435Z,17.25
2022-09-07T02:22:14.539Z,17.25
2022-09-07T02:25:22.120Z,17.30
2022-09-07T02:28:29.408Z,17.36
2022-09-07T02:31:31.850Z,17.46
2022-09-07T02:34:34.388Z,17.49
2022-09-07T02:37:38.423Z,17.43
2022-09-07T02:40:40.804Z,17.40
2022-09-07T02:43:43.113Z,17.47
2022-09-07T02:47:10.033Z,17.49
2022-09-07T02:50:42.445Z,17.56
2022-09-07T02:54:00.823Z,17.47
2022-09-07T02:57:50.745Z,17.53
2022-09-07T03:01:30.321Z,17.56
2022-09-07T03:04:41.536Z,17.57
2022-09-07T03:08:01.204Z,17.54
2022-09-07T03:11:07.457Z,17.57
2022-09-07T03:14:21.142Z,17.56
2022-09-07T03:17:23.406Z,17.62
2022-09-07T03:20:25.819Z,17.76
2022-09-07T03:23:28.086Z,17.81
2022-09-07T03:26:30.518Z,17.76
2022-09-07T03:29:32.800Z,17.70
2022-09-07T03:32:37.036Z,17.70
2022-09-07T03:35:39.292Z,17.69
2022-09-07T03:38:41.659Z,17.79
2022-09-07T03:41:43.916Z,17.73
2022-09-07T03:44:46.502Z,17.81
2022-09-07T03:47:49.692Z,17.70
2022-09-07T03:50:59.067Z,17.67
2022-09-07T03:54:01.319Z,17.77
2022-09-07T03:57:03.789Z,17.65
2022-09-07T04:00:06.732Z,17.49
2022-09-07T04:03:14.526Z,17.49
2022-09-07T04:06:17.861Z,17.45
2022-09-07T04:09:20.303Z,17.54
2022-09-07T04:12:22.579Z,17.39
2022-09-07T04:15:31.105Z,17.40
2022-09-07T04:18:36.467Z,17.32
2022-09-07T04:21:39.214Z,17.47
2022-09-07T04:24:41.489Z,17.60
2022-09-07T04:27:43.839Z,17.60
2022-09-07T04:30:47.096Z,17.53
2022-09-07T04:33:50.706Z,17.60
2022-09-07T04:36:52.997Z,17.59
2022-09-07T04:39:58.203Z,17.54
2022-09-07T04:43:00.571Z,17.46
2022-09-07T04:46:04.574Z,17.53
2022-09-07T04:49:09.379Z,17.54
2022-09-07T04:52:11.805Z,17.74
2022-09-07T04:55:14.086Z,17.83
2022-09-07T04:58:16.387Z,17.97
2022-09-07T05:01:21.291Z,18.02
2022-09-07T05:04:23.651Z,18.05
2022-09-07T05:07:25.966Z,18.05
2022-09-07T05:10:28.302Z,18.21
2022-09-07T05:13:31.963Z,18.28
2022-09-07T05:16:37.524Z,18.37
2022-09-07T05:19:40.094Z,18.38
2022-09-07T05:22:42.671Z,18.58
2022-09-07T05:25:47.006Z,18.86
2022-09-07T05:28:50.406Z,19.20
2022-09-07T05:31:55.279Z,19.41
2022-09-07T05:34:57.884Z,19.55
2022-09-07T05:38:00.439Z,19.64
2022-09-07T05:41:17.457Z,19.72
2022-09-07T05:47:42.996Z,19.94
2022-09-07T05:50:53.154Z,20.21
2022-09-07T05:53:56.861Z,20.37
2022-09-07T05:57:02.921Z,20.43
2022-09-07T06:00:05.708Z,20.60
2022-09-07T06:03:14.909Z,20.87
2022-09-07T06:06:19.367Z,21.04
2022-09-07T06:09:21.846Z,21.14
2022-09-07T06:12:24.426Z,21.41
2022-09-07T06:15:26.957Z,21.71
2022-09-07T06:18:31.586Z,21.54
2022-09-07T06:21:43.588Z,21.55
2022-09-07T06:24:48.367Z,21.58
2022-09-07T06:27:52.133Z,21.81
2022-09-07T06:30:59.571Z,22.12
2022-09-07T06:34:09.820Z,22.24
2022-09-07T06:37:12.439Z,22.68
2022-09-07T06:40:15.028Z,22.92
2022-09-07T06:43:17.408Z,23.42
2022-09-07T06:49:42.845Z,24.25
2022-09-07T06:56:10.852Z,24.44
2022-09-07T06:59:13.255Z,24.89
2022-09-07T07:02:15.651Z,25.47
2022-09-07T07:05:17.976Z,25.92
2022-09-07T07:08:21.847Z,25.50
2022-09-07T07:11:24.080Z,26.25
2022-09-07T07:14:26.900Z,26.76
2022-09-07T07:17:29.805Z,26.99
2022-09-07T07:20:32.385Z,27.40
2022-09-07T07:23:35.480Z,27.62
2022-09-07T07:26:40.237Z,27.61
2022-09-07T07:29:43.224Z,28.03
2022-09-07T07:32:46.228Z,28.47
2022-09-07T07:35:48.527Z,28.61
2022-09-07T07:39:02.072Z,29.45
2022-09-07T07:42:05.856Z,29.96
2022-09-07T07:48:34.627Z,29.92
2022-09-07T07:54:59.534Z,30.04
2022-09-07T07:58:01.990Z,30.25
2022-09-07T08:01:10.808Z,30.31
2022-09-07T08:04:13.127Z,29.83
2022-09-07T08:07:15.857Z,30.41
2022-09-07T08:10:18.156Z,29.72
2022-09-07T08:13:21.395Z,30.43
2022-09-07T08:16:23.932Z,30.55
2022-09-07T08:19:26.160Z,30.03
2022-09-07T08:22:30.711Z,29.45
2022-09-07T08:25:36.450Z,28.80
2022-09-07T08:28:40.624Z,27.91
2022-09-07T08:31:44.270Z,27.95
2022-09-07T08:34:46.519Z,27.93
2022-09-07T08:37:48.650Z,27.86
2022-09-07T08:40:51.310Z,27.93
2022-09-07T08:44:03.701Z,28.84
2022-09-07T08:47:27.865Z,28.56
2022-09-07T08:50:37.017Z,29.66
2022-09-07T08:53:45.878Z,30.78
2022-09-07T09:00:16.898Z,32.69
2022-09-07T09:03:30.989Z,33.06
2022-09-07T09:06:46.975Z,33.19
2022-09-07T09:10:09.537Z,32.01
2022-09-07T09:13:19.958Z,32.15
2022-09-07T09:16:43.123Z,32.58
2022-09-07T09:19:52.360Z,32.95
2022-09-07T09:23:00.874Z,31.81
2022-09-07T09:26:12.374Z,31.39
2022-09-07T09:29:21.520Z,31.09
2022-09-07T09:32:33.351Z,30.63
2022-09-07T09:35:36.412Z,30.14
2022-09-07T09:38:40.589Z,30.21
2022-09-07T09:41:42.787Z,29.93
2022-09-07T09:44:45.567Z,30.37
2022-09-07T09:47:53.074Z,29.97
2022-09-07T09:54:39.224Z,29.74
2022-09-07T10:01:26.930Z,30.35
2022-09-07T10:04:35.140Z,30.61
2022-09-07T10:07:37.335Z,31.13
2022-09-07T10:10:50.618Z,31.76
2022-09-07T10:13:57.865Z,32.49
2022-09-07T10:17:02.140Z,33.10
2022-09-07T10:20:16.460Z,33.24
2022-09-07T10:23:22.349Z,32.55
2022-09-07T10:26:33.318Z,33.13
2022-09-07T10:29:35.998Z,33.02
2022-09-07T10:32:54.909Z,33.12
2022-09-07T10:36:03.333Z,35.02
2022-09-07T10:39:15.830Z,35.71
2022-09-07T10:42:30.974Z,35.21
2022-09-07T10:45:48.932Z,35.54
2022-09-07T10:49:03.296Z,36.66
2022-09-07T10:52:29.020Z,36.88
2022-09-07T10:55:42.425Z,37.13
2022-09-07T10:59:08.632Z,37.81
2022-09-07T11:02:19.495Z,38.32
2022-09-07T11:05:39.848Z,37.41
2022-09-07T11:09:19.650Z,38.41
2022-09-07T11:12:37.595Z,38.95
2022-09-07T11:15:54.955Z,38.12
2022-09-07T11:19:35.952Z,38.57
2022-09-07T11:22:50.557Z,39.05
2022-09-07T11:26:05.483Z,38.95
2022-09-07T11:29:35.961Z,39.66
2022-09-07T11:33:02.515Z,38.93
2022-09-07T11:36:15.189Z,39.58
2022-09-07T11:39:23.367Z,40.43
2022-09-07T11:42:43.390Z,40.57
2022-09-07T11:45:54.257Z,41.09
2022-09-07T11:48:58.089Z,40.91
2022-09-07T11:52:05.711Z,40.15
2022-09-07T11:55:20.580Z,39.14
2022-09-07T11:58:59.471Z,40.23
2022-09-07T12:02:13.868Z,38.88
2022-09-07T12:05:46.991Z,40.21
2022-09-07T12:09:21.765Z,39.92
2022-09-07T12:12:29.586Z,40.54
2022-09-07T12:16:04.939Z,40.07
2022-09-07T12:19:18.937Z,39.27
2022-09-07T12:22:22.472Z,40.03
2022-09-07T12:25:25.771Z,40.71
2022-09-07T12:28:56.942Z,41.24
2022-09-07T12:35:26.175Z,41.82
2022-09-07T12:38:31.411Z,41.56
2022-09-07T12:41:47.413Z,41.75
2022-09-07T12:45:28.363Z,41.52
2022-09-07T12:48:43.580Z,40.77
2022-09-07T12:52:15.771Z,40.41
2022-09-07T12:55:29.849Z,39.41
2022-09-07T12:58:44.362Z,39.11
2022-09-07T13:02:05.039Z,40.00
2022-09-07T13:05:22.599Z,40.57
2022-09-07T13:08:27.811Z,39.45
2022-09-07T13:11:40.346Z,41.05
2022-09-07T13:14:43.736Z,40.99
2022-09-07T13:17:55.911Z,41.22
2022-09-07T13:21:07.373Z,41.12
2022-09-07T13:27:57.825Z,40.98
2022-09-07T13:31:24.508Z,38.50
2022-09-07T13:34:32.321Z,37.28
2022-09-07T13:37:58.923Z,35.50
2022-09-07T13:41:14.657Z,34.92
2022-09-07T13:44:26.537Z,34.38
2022-09-07T13:47:35.833Z,37.61
2022-09-07T13:50:46.854Z,38.33
2022-09-07T13:54:10.822Z,39.56
2022-09-07T13:57:27.486Z,39.92
2022-09-07T14:00:31.017Z,39.52
2022-09-07T14:03:39.483Z,39.29
2022-09-07T14:06:41.831Z,39.39
2022-09-07T14:09:44.001Z,39.13
2022-09-07T14:12:53.278Z,39.08
2022-09-07T14:15:55.408Z,39.00
2022-09-07T14:18:58.880Z,39.34
2022-09-07T14:22:04.635Z,39.10
2022-09-07T14:25:07.886Z,39.39
2022-09-07T14:28:29.958Z,39.14
2022-09-07T14:31:32.642Z,38.01
2022-09-07T14:34:37.548Z,37.04
2022-09-07T14:37:40.343Z,36.73
2022-09-07T14:40:42.847Z,36.88
2022-09-07T14:43:53.940Z,36.45
2022-09-07T14:46:58.524Z,36.25
2022-09-07T14:50:06.063Z,35.88
2022-09-07T14:56:39.301Z,36.35
2022-09-07T14:59:47.194Z,35.96
2022-09-07T15:02:56.128Z,35.94
2022-09-07T15:06:03.224Z,35.04
2022-09-07T15:09:07.258Z,34.44
2022-09-07T15:12:27.149Z,34.36
2022-09-07T15:15:39.135Z,33.65
2022-09-07T15:18:54.943Z,33.67
2022-09-07T15:22:10.987Z,33.73
2022-09-07T15:25:13.893Z,33.44
2022-09-07T15:31:59.285Z,32.99
2022-09-07T15:35:05.305Z,32.23
2022-09-07T15:41:32.071Z,31.09
2022-09-07T15:44:34.364Z,31.19
2022-09-07T15:47:48.016Z,31.08
2022-09-07T15:52:04.854Z,30.37
2022-09-07T15:54:28.359Z,29.70
2022-09-07T16:01:51.598Z,30.03
2022-09-07T16:04:16.052Z,29.63
2022-09-07T16:07:18.705Z,29.74
2022-09-07T16:10:21.347Z,29.92
2022-09-07T16:13:24.318Z,29.63
2022-09-07T16:17:26.528Z,29.69
2022-09-07T16:19:49.776Z,29.73
2022-09-07T16:26:20.545Z,28.98
2022-09-07T16:29:22.768Z,28.86
2022-09-07T16:36:01.288Z,28.42
2022-09-07T16:39:03.957Z,28.20
2022-09-07T16:42:06.897Z,27.92
2022-09-07T16:48:34.492Z,28.09
2022-09-07T16:51:37.072Z,28.20
2022-09-07T16:54:39.770Z,28.20
2022-09-07T17:01:08.786Z,28.01
2022-09-07T17:04:11.909Z,28.01
2022-09-07T17:07:14.136Z,27.85
2022-09-07T17:10:16.415Z,27.73
2022-09-07T17:13:18.592Z,27.59
2022-09-07T17:16:23.737Z,27.48
2022-09-07T17:19:29.424Z,27.55
2022-09-07T17:22:32.150Z,27.51
2022-09-07T17:25:34.478Z,27.48
2022-09-07T17:28:38.850Z,27.40
2022-09-07T17:35:03.413Z,27.37
2022-09-07T17:41:31.075Z,26.96
2022-09-07T17:44:37.843Z,26.82
2022-09-07T17:47:40.577Z,26.73
2022-09-07T17:50:42.999Z,26.68
2022-09-07T17:53:46.220Z,26.52
2022-09-07T17:56:48.515Z,26.46
2022-09-07T18:03:12.928Z,26.42
2022-09-07T18:06:15.179Z,26.19
2022-09-07T18:09:17.770Z,26.06
2022-09-07T18:12:20.485Z,25.98
2022-09-07T18:15:22.634Z,25.84
2022-09-07T18:18:25.019Z,25.63
2022-09-07T18:21:32.983Z,25.34
2022-09-07T18:24:36.868Z,25.18
2022-09-07T18:27:39.858Z,25.23
2022-09-07T18:30:42.846Z,25.12
2022-09-07T18:33:45.622Z,25.12
2022-09-07T18:36:48.210Z,25.00
2022-09-07T18:39:50.421Z,24.92
2022-09-07T18:42:52.742Z,24.82
2022-09-07T18:46:04.899Z,24.82
2022-09-07T18:49:07.736Z,24.85
2022-09-07T18:55:32.999Z,24.64
2022-09-07T18:58:35.181Z,24.49
2022-09-07T19:01:37.936Z,24.54
2022-09-07T19:08:03.843Z,24.45
2022-09-07T19:11:14.835Z,24.51
2022-09-07T19:14:17.523Z,24.41
2022-09-07T19:17:19.695Z,24.35
2022-09-07T19:20:26.024Z,24.29
2022-09-07T19:23:28.177Z,24.21
2022-09-07T19:26:33.888Z,24.24
2022-09-07T19:29:36.072Z,24.03
2022-09-07T19:32:38.435Z,23.80
2022-09-07T19:35:40.585Z,23.66
2022-09-07T19:38:42.845Z,23.60
2022-09-07T19:41:45.119Z,23.55
2022-09-07T19:44:47.350Z,23.70
2022-09-07T19:47:50.633Z,23.57
2022-09-07T19:50:53.208Z,23.59
2022-09-07T19:53:55.459Z,23.83
2022-09-07T19:56:57.697Z,23.87
2022-09-07T20:00:00.277Z,23.92
2022-09-07T20:03:02.540Z,23.86
2022-09-07T20:06:15.741Z,23.81
2022-09-07T20:09:20.452Z,23.86
2022-09-07T20:12:22.618Z,23.84
2022-09-07T20:15:25.108Z,23.76
2022-09-07T20:18:27.903Z,23.70
2022-09-07T20:21:30.165Z,23.69
2022-09-07T20:24:32.548Z,23.86
2022-09-07T20:27:35.928Z,23.63
2022-09-07T20:30:43.784Z,23.47
2022-09-07T20:33:46.791Z,23.62
2022-09-07T20:36:50.543Z,23.47
2022-09-07T20:39:53.092Z,23.32
2022-09-07T20:42:58.808Z,23.29
2022-09-07T20:46:01.203Z,23.06
2022-09-07T20:49:04.758Z,23.01
2022-09-07T20:52:06.982Z,22.72
2022-09-07T20:55:09.502Z,22.63
2022-09-07T20:58:12.214Z,22.71
2022-09-07T21:01:17.797Z,22.63
2022-09-07T21:04:20.255Z,22.51
2022-09-07T21:07:23.352Z,22.24
2022-09-07T21:10:25.530Z,22.37
2022-09-07T21:13:27.743Z,22.46
2022-09-07T21:16:30.162Z,22.54
2022-09-07T21:19:32.401Z,22.57
2022-09-07T21:22:34.608Z,22.44
2022-09-07T21:25:43.995Z,22.30
2022-09-07T21:28:46.164Z,22.10
2022-09-07T21:31:48.837Z,22.05
2022-09-07T21:34:51.059Z,21.86
2022-09-07T21:37:53.504Z,21.82
2022-09-07T21:40:55.671Z,21.79
2022-09-07T21:43:59.749Z,21.58
2022-09-07T21:47:01.976Z,21.58
2022-09-07T21:50:05.101Z,21.37
2022-09-07T21:53:07.304Z,21.25
2022-09-07T21:56:14.304Z,21.21
2022-09-07T21:59:16.542Z,21.08
2022-09-07T22:02:18.855Z,21.24
2022-09-07T22:05:21.146Z,21.27
2022-09-07T22:08:23.457Z,21.32
2022-09-07T22:11:27.523Z,21.15
2022-09-07T22:14:29.756Z,21.17
2022-09-07T22:17:31.937Z,21.12
2022-09-07T22:20:34.923Z,21.08
2022-09-07T22:23:39.816Z,21.07
2022-09-07T22:26:42.192Z,21.07
2022-09-07T22:29:44.883Z,20.87
2022-09-07T22:32:48.441Z,20.95
2022-09-07T22:35:50.712Z,20.84
2022-09-07T22:38:54.960Z,20.83
2022-09-07T22:41:57.211Z,20.88
2022-09-07T22:44:59.549Z,20.77
2022-09-07T22:48:01.966Z,20.57
2022-09-07T22:51:05.316Z,20.66
2022-09-07T22:54:08.494Z,20.56
2022-09-07T22:57:17.260Z,20.30
2022-09-07T23:00:19.492Z,20.22
2022-09-07T23:03:21.701Z,20.22
2022-09-07T23:06:37.808Z,20.32
2022-09-07T23:09:40.002Z,20.36
2022-09-07T23:12:42.207Z,20.29
2022-09-07T23:15:44.899Z,20.40
2022-09-07T23:18:48.273Z,20.37
2022-09-07T23:21:50.509Z,20.40
2022-09-07T23:24:52.694Z,20.36
2022-09-07T23:27:54.878Z,20.40
2022-09-07T23:30:57.755Z,20.47
2022-09-07T23:34:01.760Z,20.46
2022-09-07T23:37:03.969Z,20.54
2022-09-07T23:40:08.562Z,20.49
2022-09-07T23:43:10.987Z,20.32
2022-09-07T23:46:14.051Z,20.40
2022-09-07T23:49:16.540Z,20.36
2022-09-07T23:52:18.857Z,20.50
2022-09-07T23:55:21.067Z,20.60
2022-09-07T23:58:23.791Z,20.64
